Rechercher aéroport 
image banner adimage banner adimage banner ad
image banner ad

CN48 - St Joseph's Medical Center

Situé à Stockton, United States

ICAO - CN48, IATA -

Données fournies par Airmate  

Information générale

Coordonnées: N37°58'13" W121°17'16"
Élévation : 47 feet MSL.
Variation magnétique : 13° East
Voir autres Aéroports à California

Données opérationnelles

Special qualification required
Heure actuelle UTC:
Heure actuelle locale:
Météo à : KSCK - Stockton Metropolitan ( 9 km )
METAR: KSCK 210255Z 00000KT 10SM CLR 24/07 A2993 RMK AO2 SLP135 T02390067 53007
TAF: KSCK 202320Z 2100/2124 33005KT P6SM SKC
Voir NOTAMs / SUP AIP / TFR affectant cet aéroport [VIEW]
Fréquences de communication: [VIEW]

Pistes:

Coordonnées de l'aéroport

Adresse: Stockton United States

Vue satellite de CN48